LPHR Airport Information

Runway Information
Runway 10 Length 5233 ft width 148 ft
Elevation 81 ft Threshold 0 ft Heading 90
Runway 28 Length 5233 ft Width 148 ft
Elevation 117 ft Threshold 0 ft Heading 270
Airport Frequencies
Type APP Name APP Frequency 119.7 MHZ
Type TWR Name TWR Frequency 118 MHZ
Airport Navaids
Type NDB Name Horta Frequency 380 KHZ
Type NDB Name Horta Frequency 360 KHZ
Type VORTAC Name Horta Frequency 112700 KHZ
Airport Weather Information & NOTAM
ADDS - METARS form results

(0948 UTC 19 September 2018)
Data provider http://aviationweather.gov/metar/data/
 
METAR text: LPHR 190930Z 27005KT 220V300 9999 FEW016 23/19 Q1020
Conditions at: LPHR (HORTA/FAIAL ISLA, PT) observed 0930 UTC 19 September 2018
Temperature: 23.0°C (73°F)
Dewpoint: 19.0°C (66°F) [RH = 78%]
Pressure (altimeter): 30.12 inches Hg (1020.0 mb)
Winds: from the W (270 degrees) at 6 MPH (5 knots; 2.6 m/s)
Visibility: 6 or more miles (10+ km)
Ceiling: at least 12,000 feet AGL
Clouds: few clouds at 1600 feet AGL
Weather: no significant weather observed at this time

METAR text: LPHR 190900Z 33005KT 9999 FEW015 23/19 Q1020
Conditions at: LPHR (HORTA/FAIAL ISLA, PT) observed 0900 UTC 19 September 2018
Temperature: 23.0°C (73°F)
Dewpoint: 19.0°C (66°F) [RH = 78%]
Pressure (altimeter): 30.12 inches Hg (1020.0 mb)
Winds: from the NNW (330 degrees) at 6 MPH (5 knots; 2.6 m/s)
Visibility: 6 or more miles (10+ km)
Ceiling: at least 12,000 feet AGL
Clouds: few clouds at 1500 feet AGL
Weather: no significant weather observed at this time

Forecast for: LPHR (HORTA/FAIAL ISLA, PT)
Text: TAF LPHR 190800Z 1909/1918 VRB05KT 9999 FEW015
Forecast period: 0900 to 1800 UTC 19 September 2018
Forecast type: FROM: standard forecast or significant change
Winds: variable direction winds at 6 MPH (5 knots; 2.6 m/s)
Visibility: 6 or more miles 10+ km)
Ceiling: at least 12,000 feet AGL
Clouds: few clouds at 1500 feet AGL
Weather: no significant weather forecast for this period
Text: BECMG 1909/1912 23010KT
Forecast period: 0900 to 1800 UTC 19 September 2018
Forecast type: BECOMING: Conditions expected to become as follows by 1200 UTC 19 September 2018
Winds: from the SW (230 degrees) at 12 MPH (10 knots; 5.1 m/s)
Visibility: 6 or more miles 10+ km)
Ceiling: at least 12,000 feet AGL
Clouds: few clouds at 1500 feet AGL
Weather: no significant weather forecast for this period